sensor_id;sensor_type;location;lat;lon;timestamp;P1;durP1;ratioP1;P2;durP2;ratioP2
41556;SDS011;27720;51.992;5.890;2022-12-18T08:12:10;15.30;;;8.20;;
41556;SDS011;27720;51.992;5.890;2022-12-18T08:14:36;15.35;;;7.25;;
41556;SDS011;27720;51.992;5.890;2022-12-18T08:17:02;14.73;;;7.05;;
41556;SDS011;27720;51.992;5.890;2022-12-18T08:19:31;13.18;;;7.30;;
41556;SDS011;27720;51.992;5.890;2022-12-18T08:21:57;14.65;;;6.95;;
41556;SDS011;27720;51.992;5.890;2022-12-18T08:24:23;11.65;;;6.03;;
41556;SDS011;27720;51.992;5.890;2022-12-18T08:26:49;15.43;;;7.65;;
41556;SDS011;27720;51.992;5.890;2022-12-18T08:29:15;15.18;;;8.23;;
41556;SDS011;27720;51.992;5.890;2022-12-18T08:31:44;15.55;;;7.10;;
41556;SDS011;27720;51.992;5.890;2022-12-18T08:34:12;14.00;;;6.72;;
41556;SDS011;27720;51.992;5.890;2022-12-18T08:36:40;17.38;;;8.43;;
41556;SDS011;27720;51.992;5.890;2022-12-18T08:39:06;15.00;;;6.82;;
41556;SDS011;27720;51.992;5.890;2022-12-18T08:41:32;13.38;;;7.32;;
41556;SDS011;27720;51.992;5.890;2022-12-18T08:43:58;13.77;;;7.68;;
41556;SDS011;27720;51.992;5.890;2022-12-18T08:46:46;14.38;;;7.13;;
41556;SDS011;27720;51.992;5.890;2022-12-18T08:49:31;11.55;;;5.32;;
41556;SDS011;27720;51.992;5.890;2022-12-18T08:51:57;11.45;;;7.25;;
41556;SDS011;27720;51.992;5.890;2022-12-18T08:54:23;10.35;;;6.28;;
41556;SDS011;27720;51.992;5.890;2022-12-18T08:56:50;13.27;;;6.25;;
41556;SDS011;27720;51.992;5.890;2022-12-18T08:59:17;12.38;;;6.30;;
41556;SDS011;27720;51.992;5.890;2022-12-18T09:01:43;14.70;;;7.03;;
41556;SDS011;27720;51.992;5.890;2022-12-18T09:04:10;8.95;;;5.80;;
41556;SDS011;27720;51.992;5.890;2022-12-18T09:06:36;15.38;;;7.35;;
41556;SDS011;27720;51.992;5.890;2022-12-18T09:09:03;12.75;;;5.07;;
41556;SDS011;27720;51.992;5.890;2022-12-18T09:11:30;11.60;;;5.13;;
41556;SDS011;27720;51.992;5.890;2022-12-18T09:13:57;15.95;;;6.55;;
41556;SDS011;27720;51.992;5.890;2022-12-18T09:16:25;12.45;;;6.70;;
41556;SDS011;27720;51.992;5.890;2022-12-18T09:18:54;17.13;;;8.07;;
41556;SDS011;27720;51.992;5.890;2022-12-18T09:21:25;13.93;;;6.15;;
41556;SDS011;27720;51.992;5.890;2022-12-18T09:23:53;15.40;;;6.68;;
41556;SDS011;27720;51.992;5.890;2022-12-18T09:26:20;10.70;;;6.07;;
41556;SDS011;27720;51.992;5.890;2022-12-18T09:28:50;11.00;;;6.18;;
41556;SDS011;27720;51.992;5.890;2022-12-18T09:31:20;11.30;;;5.63;;
41556;SDS011;27720;51.992;5.890;2022-12-18T09:33:48;9.85;;;5.63;;
41556;SDS011;27720;51.992;5.890;2022-12-18T09:36:14;12.77;;;5.88;;
41556;SDS011;27720;51.992;5.890;2022-12-18T09:38:45;12.68;;;5.35;;
41556;SDS011;27720;51.992;5.890;2022-12-18T09:49:40;14.40;;;6.03;;
41556;SDS011;27720;51.992;5.890;2022-12-18T09:52:14;9.50;;;5.22;;
41556;SDS011;27720;51.992;5.890;2022-12-18T09:55:05;11.65;;;5.80;;
41556;SDS011;27720;51.992;5.890;2022-12-18T09:57:49;14.07;;;6.07;;
41556;SDS011;27720;51.992;5.890;2022-12-18T10:00:34;12.77;;;6.68;;
41556;SDS011;27720;51.992;5.890;2022-12-18T10:03:03;12.25;;;6.53;;
41556;SDS011;27720;51.992;5.890;2022-12-18T10:08:18;15.15;;;6.57;;
41556;SDS011;27720;51.992;5.890;2022-12-18T10:10:53;10.85;;;5.25;;
41556;SDS011;27720;51.992;5.890;2022-12-18T10:13:33;11.70;;;5.75;;
41556;SDS011;27720;51.992;5.890;2022-12-18T10:16:16;10.50;;;5.65;;
41556;SDS011;27720;51.992;5.890;2022-12-18T10:19:25;13.10;;;5.78;;
41556;SDS011;27720;51.992;5.890;2022-12-18T10:22:11;9.57;;;5.75;;
41556;SDS011;27720;51.992;5.890;2022-12-18T10:24:45;10.07;;;5.20;;
41556;SDS011;27720;51.992;5.890;2022-12-18T10:27:32;10.43;;;5.03;;
41556;SDS011;27720;51.992;5.890;2022-12-18T10:29:58;12.15;;;5.65;;
41556;SDS011;27720;51.992;5.890;2022-12-18T10:32:29;12.23;;;6.25;;
41556;SDS011;27720;51.992;5.890;2022-12-18T10:34:57;10.02;;;6.07;;
41556;SDS011;27720;51.992;5.890;2022-12-18T10:37:27;10.68;;;5.47;;
41556;SDS011;27720;51.992;5.890;2022-12-18T10:42:38;11.55;;;6.93;;
41556;SDS011;27720;51.992;5.890;2022-12-18T10:45:30;13.93;;;6.25;;
41556;SDS011;27720;51.992;5.890;2022-12-18T10:47:56;9.63;;;5.35;;
41556;SDS011;27720;51.992;5.890;2022-12-18T10:50:28;10.75;;;6.32;;
41556;SDS011;27720;51.992;5.890;2022-12-18T10:52:58;15.32;;;6.05;;
41556;SDS011;27720;51.992;5.890;2022-12-18T10:55:32;11.00;;;5.30;;
41556;SDS011;27720;51.992;5.890;2022-12-18T10:58:16;12.23;;;6.22;;
41556;SDS011;27720;51.992;5.890;2022-12-18T11:01:04;12.30;;;6.22;;
41556;SDS011;27720;51.992;5.890;2022-12-18T11:06:06;14.07;;;7.22;;
41556;SDS011;27720;51.992;5.890;2022-12-18T11:08:36;14.63;;;6.13;;
41556;SDS011;27720;51.992;5.890;2022-12-18T11:11:03;13.63;;;5.95;;
41556;SDS011;27720;51.992;5.890;2022-12-18T21:52:38;26.50;;;15.52;;
41556;SDS011;27720;51.992;5.890;2022-12-18T21:55:04;29.08;;;14.02;;
41556;SDS011;27720;51.992;5.890;2022-12-18T21:57:33;24.00;;;13.30;;
41556;SDS011;27720;51.992;5.890;2022-12-18T21:59:59;33.03;;;15.32;;
41556;SDS011;27720;51.992;5.890;2022-12-18T22:02:26;26.85;;;13.68;;
41556;SDS011;27720;51.992;5.890;2022-12-18T22:04:52;32.70;;;15.13;;
41556;SDS011;27720;51.992;5.890;2022-12-18T22:07:18;34.60;;;15.43;;
41556;SDS011;27720;51.992;5.890;2022-12-18T22:09:44;37.58;;;16.35;;
41556;SDS011;27720;51.992;5.890;2022-12-18T22:12:11;35.03;;;15.50;;
41556;SDS011;27720;51.992;5.890;2022-12-18T22:14:40;35.58;;;15.85;;
41556;SDS011;27720;51.992;5.890;2022-12-18T22:17:06;29.13;;;15.60;;
41556;SDS011;27720;51.992;5.890;2022-12-18T22:19:32;31.40;;;14.73;;
41556;SDS011;27720;51.992;5.890;2022-12-18T22:22:00;30.63;;;14.80;;
41556;SDS011;27720;51.992;5.890;2022-12-18T22:24:35;36.08;;;16.55;;
41556;SDS011;27720;51.992;5.890;2022-12-18T22:27:07;33.55;;;15.90;;
41556;SDS011;27720;51.992;5.890;2022-12-18T22:29:33;29.55;;;15.30;;
41556;SDS011;27720;51.992;5.890;2022-12-18T22:32:20;32.28;;;14.55;;
41556;SDS011;27720;51.992;5.890;2022-12-18T22:34:46;35.25;;;15.98;;
41556;SDS011;27720;51.992;5.890;2022-12-18T22:37:12;36.40;;;15.50;;
41556;SDS011;27720;51.992;5.890;2022-12-18T22:39:38;32.80;;;14.85;;
41556;SDS011;27720;51.992;5.890;2022-12-18T22:42:04;31.50;;;14.68;;
41556;SDS011;27720;51.992;5.890;2022-12-18T22:44:31;32.28;;;15.55;;
41556;SDS011;27720;51.992;5.890;2022-12-18T22:46:56;32.40;;;15.63;;
41556;SDS011;27720;51.992;5.890;2022-12-18T22:49:23;37.60;;;16.98;;
41556;SDS011;27720;51.992;5.890;2022-12-18T22:51:50;35.25;;;15.90;;
41556;SDS011;27720;51.992;5.890;2022-12-18T22:54:17;32.35;;;16.25;;
41556;SDS011;27720;51.992;5.890;2022-12-18T22:56:43;34.63;;;15.43;;
41556;SDS011;27720;51.992;5.890;2022-12-18T22:59:16;33.70;;;15.80;;
41556;SDS011;27720;51.992;5.890;2022-12-18T23:01:44;28.75;;;16.33;;
41556;SDS011;27720;51.992;5.890;2022-12-18T23:04:13;37.35;;;17.40;;
41556;SDS011;27720;51.992;5.890;2022-12-18T23:06:40;34.88;;;16.70;;
41556;SDS011;27720;51.992;5.890;2022-12-18T23:09:09;41.67;;;17.40;;
41556;SDS011;27720;51.992;5.890;2022-12-18T23:11:42;34.40;;;15.98;;
41556;SDS011;27720;51.992;5.890;2022-12-18T23:14:09;38.08;;;16.52;;
41556;SDS011;27720;51.992;5.890;2022-12-18T23:16:37;30.83;;;15.43;;
41556;SDS011;27720;51.992;5.890;2022-12-18T23:19:03;33.80;;;16.38;;
41556;SDS011;27720;51.992;5.890;2022-12-18T23:21:30;39.58;;;16.65;;
41556;SDS011;27720;51.992;5.890;2022-12-18T23:23:56;35.33;;;17.23;;
41556;SDS011;27720;51.992;5.890;2022-12-18T23:26:22;35.72;;;15.75;;
41556;SDS011;27720;51.992;5.890;2022-12-18T23:28:49;33.85;;;16.00;;
41556;SDS011;27720;51.992;5.890;2022-12-18T23:31:20;40.70;;;16.90;;
41556;SDS011;27720;51.992;5.890;2022-12-18T23:33:48;34.80;;;17.00;;
41556;SDS011;27720;51.992;5.890;2022-12-18T23:36:16;39.17;;;17.58;;
41556;SDS011;27720;51.992;5.890;2022-12-18T23:38:46;34.35;;;17.45;;
41556;SDS011;27720;51.992;5.890;2022-12-18T23:41:13;38.13;;;17.10;;
41556;SDS011;27720;51.992;5.890;2022-12-18T23:43:40;33.00;;;16.35;;
41556;SDS011;27720;51.992;5.890;2022-12-18T23:46:10;37.33;;;15.73;;
41556;SDS011;27720;51.992;5.890;2022-12-18T23:48:56;34.80;;;15.02;;
41556;SDS011;27720;51.992;5.890;2022-12-18T23:51:26;33.35;;;15.77;;
41556;SDS011;27720;51.992;5.890;2022-12-18T23:53:54;37.38;;;15.98;;
41556;SDS011;27720;51.992;5.890;2022-12-18T23:56:21;35.50;;;16.45;;
41556;SDS011;27720;51.992;5.890;2022-12-18T23:58:47;43.58;;;17.35;;
